Time;durP1;ratioP1;P1;durP2;ratioP2;P2;SDS_P1;SDS_P2;PMS_P1;PMS_P2;Temp;Humidity;BMP_temperature;BMP_pressure;BME280_temperature;BME280_humidity;BME280_pressure;Samples;Min_cycle;Max_cycle;Signal;HPM_P1;HPM_P2
2021/07/05 00:01:44;;;;;;;1.47;1.00;;;;;;;14.10;78.36;95297.81;4995021;28;20215;-76
2021/07/05 00:04:13;;;;;;;2.23;1.20;;;;;;;14.21;77.66;95304.41;5013209;28;20640;-76
2021/07/05 00:06:38;;;;;;;1.20;1.03;;;;;;;14.23;77.96;95293.81;5009636;28;20227;-76
2021/07/05 00:09:05;;;;;;;1.20;1.10;;;;;;;14.26;77.66;95294.25;4995326;28;20198;-76
2021/07/05 00:11:30;;;;;;;1.50;1.20;;;;;;;14.25;77.87;95302.28;5011709;28;20175;-76
2021/07/05 00:13:55;;;;;;;1.93;1.03;;;;;;;14.27;77.93;95298.47;5009060;28;20640;-76
2021/07/05 00:16:21;;;;;;;1.30;1.20;;;;;;;14.23;78.10;95294.63;5005855;28;20214;-76
2021/07/05 00:18:46;;;;;;;1.60;1.10;;;;;;;14.23;78.13;95288.59;5012829;28;20638;-76
2021/07/05 00:21:11;;;;;;;1.30;1.20;;;;;;;14.19;78.28;95288.09;5011702;28;20176;-76
2021/07/05 00:23:37;;;;;;;1.27;1.17;;;;;;;14.20;78.48;95292.34;5012533;28;20179;-76
2021/07/05 00:26:02;;;;;;;1.83;1.17;;;;;;;14.22;78.20;95287.75;5009475;28;20595;-76
2021/07/05 00:28:27;;;;;;;1.10;1.00;;;;;;;14.20;78.57;95287.09;5012765;28;20281;-76
2021/07/05 00:30:53;;;;;;;1.90;1.20;;;;;;;14.18;78.57;95276.84;5012695;28;20187;-77
2021/07/05 00:33:18;;;;;;;1.40;1.30;;;;;;;14.13;78.66;95284.41;5011066;28;20198;-75
2021/07/05 00:35:43;;;;;;;1.53;1.10;;;;;;;14.13;79.23;95286.19;5008853;28;20179;-77
2021/07/05 00:38:09;;;;;;;1.20;1.10;;;;;;;14.14;79.12;95287.84;5010820;28;20312;-77
2021/07/05 00:40:34;;;;;;;2.03;1.37;;;;;;;13.99;79.61;95287.78;5012421;28;20210;-76
2021/07/05 00:42:59;;;;;;;1.60;1.17;;;;;;;13.96;79.82;95293.34;5011564;28;20218;-76
2021/07/05 00:45:26;;;;;;;1.40;1.20;;;;;;;13.98;80.01;95274.91;4991887;28;20179;-76
2021/07/05 00:47:52;;;;;;;2.10;1.10;;;;;;;14.06;80.42;95282.69;5002884;28;20207;-76
2021/07/05 00:50:19;;;;;;;1.40;1.30;;;;;;;13.97;80.17;95278.50;5011286;28;20171;-76
2021/07/05 00:52:47;;;;;;;3.17;1.50;;;;;;;13.96;80.47;95277.69;5011242;28;20337;-76
2021/07/05 00:55:13;;;;;;;1.40;1.30;;;;;;;14.08;80.04;95278.09;5010797;28;20264;-76
2021/07/05 00:57:39;;;;;;;1.27;1.17;;;;;;;14.14;79.88;95274.78;5008253;28;20223;-75
2021/07/05 01:00:08;;;;;;;1.53;1.20;;;;;;;14.09;80.13;95283.13;5006922;28;20194;-76
2021/07/05 01:02:33;;;;;;;1.97;1.20;;;;;;;14.04;80.46;95279.41;4991668;28;20187;-76
2021/07/05 01:04:59;;;;;;;1.40;1.30;;;;;;;14.00;80.75;95281.56;4975020;28;20183;-76
2021/07/05 01:07:24;;;;;;;1.40;1.30;;;;;;;13.97;81.05;95274.09;4992094;28;20229;-77
2021/07/05 01:09:50;;;;;;;2.90;1.13;;;;;;;13.99;81.03;95266.09;5007996;28;20184;-77
2021/07/05 01:12:15;;;;;;;1.30;1.20;;;;;;;14.08;80.67;95270.25;5012252;28;20191;-77
2021/07/05 01:14:41;;;;;;;1.50;1.40;;;;;;;14.08;80.66;95276.28;5012002;28;20175;-75
2021/07/05 01:17:16;;;;;;;1.57;1.47;;;;;;;14.08;80.83;95265.03;5010698;28;20634;-76
2021/07/05 01:19:45;;;;;;;1.70;1.60;;;;;;;14.20;80.68;95271.44;5002872;28;20668;-77
2021/07/05 01:22:11;;;;;;;2.90;1.67;;;;;;;14.13;80.61;95268.75;5007713;28;20640;-76
2021/07/05 01:24:36;;;;;;;1.50;1.37;;;;;;;14.15;80.87;95274.59;4991227;28;20187;-76
2021/07/05 01:27:03;;;;;;;2.07;1.70;;;;;;;14.24;80.31;95274.53;4991032;28;20262;-77
2021/07/05 01:29:28;;;;;;;2.07;1.50;;;;;;;14.20;80.52;95262.81;4997949;28;20199;-76
2021/07/05 01:31:56;;;;;;;2.10;1.50;;;;;;;14.17;80.71;95266.59;5010520;28;20209;-76
2021/07/05 01:34:21;;;;;;;1.30;1.20;;;;;;;14.17;80.80;95269.19;5010852;28;20221;-77
2021/07/05 01:36:46;;;;;;;2.87;1.50;;;;;;;14.19;80.75;95264.59;4994670;28;20238;-77
2021/07/05 01:39:12;;;;;;;2.07;1.40;;;;;;;14.22;80.71;95258.19;5008494;28;20186;-76
2021/07/05 01:41:37;;;;;;;2.43;1.10;;;;;;;14.32;79.92;95258.78;5007643;28;20199;-77
2021/07/05 01:44:03;;;;;;;2.30;1.20;;;;;;;14.35;79.89;95242.75;5009123;28;20194;-76
2021/07/05 01:46:28;;;;;;;1.30;1.20;;;;;;;14.42;78.94;95244.47;5011877;28;20187;-77
2021/07/05 01:48:53;;;;;;;1.50;1.40;;;;;;;14.51;78.25;95244.44;5011925;28;20179;-76
2021/07/05 01:51:19;;;;;;;1.70;1.10;;;;;;;14.49;78.45;95247.22;5009533;28;20561;-76
2021/07/05 01:53:44;;;;;;;1.37;1.20;;;;;;;14.53;78.45;95253.69;4993147;28;20180;-76
2021/07/05 01:56:10;;;;;;;3.73;1.10;;;;;;;14.44;78.85;95250.31;4994539;28;20218;-76
2021/07/05 01:58:35;;;;;;;1.33;1.10;;;;;;;14.41;79.16;95244.66;4994592;28;20274;-76
2021/07/05 02:01:01;;;;;;;1.27;1.20;;;;;;;14.31;79.98;95244.91;4997415;28;20647;-76
2021/07/05 02:03:26;;;;;;;1.47;1.23;;;;;;;14.28;79.69;95240.03;5015586;28;20187;-77
2021/07/05 02:05:52;;;;;;;2.50;1.20;;;;;;;14.37;79.46;95233.75;5015721;28;20183;-77
2021/07/05 02:08:18;;;;;;;1.17;1.07;;;;;;;14.29;79.53;95231.19;4998028;28;20202;-77
2021/07/05 02:10:44;;;;;;;1.47;1.03;;;;;;;14.26;79.57;95226.34;5014248;28;20562;-77
2021/07/05 02:13:14;;;;;;;1.13;1.03;;;;;;;14.28;79.72;95239.22;5010120;28;20214;-76
2021/07/05 02:15:40;;;;;;;1.47;1.00;;;;;;;14.26;79.28;95243.81;4997857;28;20191;-76
2021/07/05 02:18:06;;;;;;;1.30;1.20;;;;;;;14.24;79.62;95248.41;5015266;28;20741;-77
2021/07/05 02:20:32;;;;;;;3.03;1.50;;;;;;;14.23;79.77;95244.19;5013960;28;20267;-77
2021/07/05 02:22:58;;;;;;;2.40;1.10;;;;;;;14.18;79.74;95240.28;4996338;28;20245;-77
2021/07/05 02:25:29;;;;;;;1.97;1.00;;;;;;;14.13;80.09;95233.97;4994001;28;20184;-76
2021/07/05 02:28:07;;;;;;;1.30;1.10;;;;;;;14.07;80.34;95232.88;4994477;28;20195;-77
2021/07/05 02:30:33;;;;;;;3.43;1.57;;;;;;;14.07;80.39;95229.47;4994365;28;20187;-76
2021/07/05 02:32:59;;;;;;;3.43;1.00;;;;;;;14.06;80.33;95236.50;4995498;28;20195;-76
2021/07/05 02:35:27;;;;;;;1.10;1.00;;;;;;;14.01;80.73;95238.00;5004826;28;20210;-77
2021/07/05 02:37:54;;;;;;;1.10;0.97;;;;;;;13.99;80.69;95235.56;5013756;28;20215;-77
2021/07/05 02:40:23;;;;;;;1.00;0.97;;;;;;;13.96;80.93;95233.31;4997343;28;20179;-77
2021/07/05 02:42:49;;;;;;;1.20;1.10;;;;;;;13.94;80.98;95242.28;4997102;28;20184;-76
2021/07/05 02:45:22;;;;;;;1.23;1.13;;;;;;;13.93;81.16;95236.25;5008162;28;20555;-77
2021/07/05 02:47:49;;;;;;;1.07;1.03;;;;;;;13.95;81.28;95236.88;5010338;28;20238;-76
2021/07/05 02:50:14;;;;;;;1.40;1.30;;;;;;;13.93;81.32;95241.47;5013792;28;20198;-77
2021/07/05 02:52:40;;;;;;;1.87;1.10;;;;;;;14.01;81.15;95238.00;5013665;28;20179;-76
2021/07/05 02:55:09;;;;;;;1.70;1.30;;;;;;;14.01;81.43;95244.03;5011699;28;20194;-76
2021/07/05 02:57:36;;;;;;;1.20;1.10;;;;;;;13.95;81.61;95238.69;5014864;28;20674;-77
2021/07/05 03:00:48;;;;;;;1.30;1.20;;;;;;;13.89;82.19;95233.19;5012952;28;20182;-77
2021/07/05 03:03:15;;;;;;;1.50;1.17;;;;;;;13.91;82.16;95233.00;5027918;28;20207;-77
2021/07/05 03:05:40;;;;;;;1.60;1.47;;;;;;;13.86;82.30;95230.91;5011048;28;20605;-77
2021/07/05 03:08:06;;;;;;;2.13;1.30;;;;;;;13.84;82.45;95234.69;5013002;28;20203;-76
2021/07/05 03:10:34;;;;;;;1.70;1.40;;;;;;;13.85;82.49;95229.31;5013198;28;20198;-75
2021/07/05 03:13:01;;;;;;;2.10;1.30;;;;;;;13.83;82.35;95217.41;5013424;28;20206;-77
2021/07/05 03:15:26;;;;;;;1.97;1.40;;;;;;;13.91;82.29;95225.19;5010173;28;20281;-75
2021/07/05 03:17:51;;;;;;;2.43;1.23;;;;;;;13.91;82.39;95224.38;4996361;28;20294;-77
2021/07/05 03:20:19;;;;;;;1.50;1.10;;;;;;;13.82;82.71;95224.44;5014398;28;20270;-76
2021/07/05 03:22:46;;;;;;;2.77;1.13;;;;;;;13.84;82.45;95230.28;5012907;28;20183;-77
2021/07/05 03:25:13;;;;;;;4.70;1.23;;;;;;;13.81;82.57;95235.88;5012772;28;20662;-76
2021/07/05 03:27:40;;;;;;;2.23;1.50;;;;;;;13.78;82.67;95244.06;5000896;28;20692;-76
2021/07/05 03:30:07;;;;;;;1.40;1.30;;;;;;;13.73;82.71;95233.31;5012912;28;20270;-77
2021/07/05 03:32:33;;;;;;;1.53;1.43;;;;;;;13.74;83.12;95221.88;5013882;28;20195;-76
2021/07/05 03:34:59;;;;;;;2.50;1.10;;;;;;;13.79;83.10;95216.97;5012183;28;20179;-76
2021/07/05 03:37:24;;;;;;;1.60;1.13;;;;;;;13.71;83.49;95211.00;5010093;28;20275;-76
2021/07/05 03:39:49;;;;;;;3.10;1.20;;;;;;;13.72;83.09;95212.63;5012285;28;20179;-76
2021/07/05 03:42:15;;;;;;;1.97;1.40;;;;;;;13.73;82.84;95206.41;4996077;28;20193;-76
2021/07/05 03:44:40;;;;;;;2.17;1.53;;;;;;;13.74;83.28;95206.22;5013389;28;20254;-77
2021/07/05 03:47:05;;;;;;;2.50;1.40;;;;;;;13.73;83.04;95195.97;5011766;28;20345;-77
2021/07/05 03:49:31;;;;;;;1.83;1.33;;;;;;;13.75;83.09;95202.63;4991680;28;20323;-76
2021/07/05 03:51:56;;;;;;;2.10;1.40;;;;;;;13.76;83.34;95201.66;5011204;28;20183;-77
2021/07/05 03:54:21;;;;;;;2.87;1.20;;;;;;;13.90;82.78;95207.91;5012150;28;20190;-77
2021/07/05 03:56:47;;;;;;;2.70;1.30;;;;;;;13.98;82.57;95205.22;5013373;28;20404;-76
2021/07/05 03:59:13;;;;;;;1.77;1.40;;;;;;;14.81;79.61;95214.69;5004905;28;20197;-76
2021/07/05 04:01:39;;;;;;;2.70;1.37;;;;;;;15.98;75.83;95220.56;4992168;28;20176;-75
2021/07/05 04:04:04;;;;;;;1.40;1.17;;;;;;;16.56;72.29;95220.41;4976545;28;20266;-77
2021/07/05 04:06:29;;;;;;;1.50;1.10;;;;;;;16.45;72.04;95219.13;4994206;28;20192;-77
2021/07/05 04:08:58;;;;;;;1.20;1.10;;;;;;;16.19;72.81;95225.00;4994490;28;20246;-76
2021/07/05 04:11:23;;;;;;;4.07;1.30;;;;;;;15.75;74.04;95230.47;5013338;28;20179;-76
2021/07/05 04:13:49;;;;;;;2.20;1.33;;;;;;;15.51;74.53;95236.81;5011924;28;20356;-77
2021/07/05 04:16:14;;;;;;;1.30;1.17;;;;;;;15.30;75.95;95233.19;5011331;28;20195;-76
2021/07/05 04:18:40;;;;;;;1.65;1.17;;;;;;;15.06;76.77;95237.94;4995598;28;20187;-77
2021/07/05 04:21:06;;;;;;;1.43;1.30;;;;;;;14.79;77.91;95248.03;4994355;28;20185;-76
2021/07/05 04:23:31;;;;;;;2.43;1.50;;;;;;;14.71;78.67;95243.72;5011871;28;20270;-76
2021/07/05 04:25:59;;;;;;;1.40;1.23;;;;;;;14.79;78.27;95248.03;5011966;28;20237;-76
2021/07/05 04:28:24;;;;;;;1.77;1.20;;;;;;;14.82;78.45;95242.44;5011821;28;20632;-77
2021/07/05 04:30:50;;;;;;;1.00;1.00;;;;;;;14.80;78.98;95249.66;5004200;28;20263;-77
2021/07/05 04:33:15;;;;;;;2.10;1.30;;;;;;;14.84;78.66;95255.31;4993951;28;20219;-78
2021/07/05 04:35:40;;;;;;;1.23;1.00;;;;;;;14.82;78.79;95247.66;4994447;28;20199;-78
2021/07/05 04:38:06;;;;;;;2.57;1.30;;;;;;;14.72;79.13;95253.16;4979258;28;20216;-79
2021/07/05 04:40:34;;;;;;;2.97;1.30;;;;;;;14.75;79.07;95241.53;4994268;28;20187;-79
2021/07/05 04:43:00;;;;;;;1.30;1.20;;;;;;;14.94;78.41;95237.59;5013540;28;20195;-77
2021/07/05 04:45:28;;;;;;;3.60;1.60;;;;;;;14.91;78.73;95230.91;5014245;28;20172;-79
2021/07/05 04:47:55;;;;;;;1.40;1.30;;;;;;;14.92;78.52;95237.75;5014879;28;20198;-78
2021/07/05 04:50:21;;;;;;;1.30;1.20;;;;;;;15.03;78.07;95239.09;4997729;28;20198;-78
2021/07/05 04:52:47;;;;;;;2.10;1.10;;;;;;;15.02;78.07;95238.28;5009222;28;20214;-76
2021/07/05 04:55:15;;;;;;;2.50;1.30;;;;;;;15.14;77.58;95248.28;4983660;28;20195;-75
2021/07/05 04:57:41;;;;;;;1.47;1.27;;;;;;;15.12;78.02;95231.97;4993381;28;20244;-75
2021/07/05 05:00:10;;;;;;;2.75;1.30;;;;;;;14.98;78.00;95233.59;5007201;28;20262;-75
2021/07/05 05:02:36;;;;;;;1.83;1.27;;;;;;;14.95;78.11;95232.16;5000893;28;20186;-76
2021/07/05 05:05:04;;;;;;;1.73;1.60;;;;;;;14.89;78.06;95243.34;5008951;28;20203;-76
2021/07/05 05:07:29;;;;;;;2.17;1.20;;;;;;;14.74;79.22;95245.13;5011522;28;20222;-77
2021/07/05 05:10:00;;;;;;;2.05;1.20;;;;;;;14.69;79.41;95252.72;5007151;28;20651;-75
2021/07/05 05:12:26;;;;;;;2.45;1.20;;;;;;;14.65;79.71;95251.44;4974786;28;20180;-76
2021/07/05 05:14:51;;;;;;;1.10;1.10;;;;;;;14.60;79.89;95259.03;5009159;28;20194;-76
2021/07/05 05:17:16;;;;;;;2.60;1.27;;;;;;;14.61;79.96;95261.47;5010518;28;20243;-76
2021/07/05 05:19:41;;;;;;;2.10;1.20;;;;;;;14.56;79.93;95265.59;5010553;28;20183;-76
2021/07/05 05:22:08;;;;;;;3.13;1.10;;;;;;;14.59;80.16;95262.63;5011705;28;20666;-76
2021/07/05 05:24:33;;;;;;;2.27;1.20;;;;;;;14.58;80.23;95267.06;5005957;28;20755;-76
2021/07/05 05:26:58;;;;;;;1.40;1.00;;;;;;;14.56;80.13;95262.97;4993893;28;20191;-76
2021/07/05 05:29:24;;;;;;;1.92;1.20;;;;;;;14.60;80.10;95266.88;5015121;28;20202;-76
2021/07/05 05:31:49;;;;;;;1.60;1.20;;;;;;;14.54;80.36;95270.19;5015133;28;20262;-76
2021/07/05 05:34:14;;;;;;;1.27;1.17;;;;;;;14.58;80.20;95272.28;5013603;28;20184;-77
2021/07/05 05:36:40;;;;;;;1.37;1.20;;;;;;;14.58;80.33;95274.09;5011586;28;20203;-76
2021/07/05 05:39:05;;;;;;;1.83;1.30;;;;;;;14.64;80.33;95266.31;5015239;28;20229;-76
2021/07/05 05:41:30;;;;;;;1.90;1.70;;;;;;;14.55;80.99;95262.16;5014327;28;20777;-76
2021/07/05 05:44:00;;;;;;;1.80;1.48;;;;;;;14.54;81.07;95262.34;5021981;28;20199;-76
2021/07/05 05:46:28;;;;;;;2.50;1.30;;;;;;;14.49;81.77;95262.91;4992267;28;20279;-76
2021/07/05 05:48:53;;;;;;;4.03;1.40;;;;;;;14.55;81.70;95271.81;5012257;28;20665;-75
2021/07/05 05:51:18;;;;;;;1.40;1.30;;;;;;;14.47;82.59;95270.09;5014752;28;20186;-76
2021/07/05 05:53:44;;;;;;;1.50;1.27;;;;;;;14.44;82.60;95271.22;4997830;28;20179;-75
2021/07/05 05:56:10;;;;;;;2.42;1.50;;;;;;;14.42;82.71;95267.19;5012509;28;20250;-75
2021/07/05 05:58:39;;;;;;;1.30;1.20;;;;;;;14.35;83.20;95274.91;5009541;28;20733;-76
2021/07/05 06:01:04;;;;;;;1.87;1.40;;;;;;;14.37;83.56;95277.34;5011674;28;20180;-76
2021/07/05 06:03:30;;;;;;;1.93;1.50;;;;;;;14.43;82.80;95269.59;5009478;28;20528;-76
2021/07/05 06:05:55;;;;;;;1.33;1.20;;;;;;;14.39;83.45;95267.50;4978363;28;20184;-77
2021/07/05 06:08:20;;;;;;;3.13;1.63;;;;;;;14.42;83.49;95262.75;5013305;28;20211;-76
2021/07/05 06:10:46;;;;;;;2.10;1.40;;;;;;;14.42;83.29;95252.31;5014988;28;20194;-75
2021/07/05 06:13:11;;;;;;;2.30;1.30;;;;;;;14.49;83.14;95256.84;5015065;28;20207;-75
2021/07/05 06:15:36;;;;;;;4.27;1.30;;;;;;;14.48;83.45;95255.22;5014918;28;20179;-75
2021/07/05 06:18:02;;;;;;;2.77;1.23;;;;;;;14.55;83.10;95253.53;5012510;28;20215;-75
2021/07/05 06:20:27;;;;;;;3.00;1.63;;;;;;;14.53;83.74;95250.28;5010766;28;20611;-76
2021/07/05 06:22:55;;;;;;;4.50;1.50;;;;;;;14.59;83.67;95258.22;4978120;28;20179;-76
2021/07/05 06:25:20;;;;;;;2.33;1.60;;;;;;;14.69;83.45;95261.38;4993614;28;20627;-76
2021/07/05 06:27:46;;;;;;;1.90;1.43;;;;;;;14.68;83.50;95259.75;4994095;28;20208;-76
2021/07/05 06:30:11;;;;;;;2.60;1.50;;;;;;;14.68;83.24;95266.78;5013237;28;20610;-75
2021/07/05 06:32:37;;;;;;;2.20;1.40;;;;;;;14.67;82.88;95268.59;5014916;28;20203;-75
2021/07/05 06:35:03;;;;;;;1.73;1.27;;;;;;;14.76;83.23;95273.75;5016134;28;20725;-75
2021/07/05 06:37:29;;;;;;;1.92;1.10;;;;;;;14.82;82.91;95263.34;5013033;28;20717;-76
2021/07/05 06:39:54;;;;;;;2.13;1.35;;;;;;;14.87;82.85;95266.25;4997925;28;20192;-75
2021/07/05 06:42:19;;;;;;;1.52;1.30;;;;;;;14.86;83.21;95258.59;5009800;28;20719;-76
2021/07/05 06:44:45;;;;;;;3.00;1.53;;;;;;;14.89;83.34;95263.44;4994817;28;20180;-76
2021/07/05 06:47:10;;;;;;;1.60;1.50;;;;;;;14.84;83.87;95264.00;4994675;28;20691;-77
2021/07/05 06:49:35;;;;;;;2.40;1.20;;;;;;;14.98;83.60;95257.13;5009249;28;20195;-76
2021/07/05 06:52:01;;;;;;;3.03;1.70;;;;;;;14.92;83.82;95269.13;5014187;28;20183;-76
2021/07/05 06:54:26;;;;;;;1.40;1.30;;;;;;;14.97;83.48;95266.78;5014209;28;20662;-76
2021/07/05 06:56:51;;;;;;;4.40;1.70;;;;;;;15.08;82.92;95264.69;5015738;28;20207;-76
2021/07/05 06:59:17;;;;;;;2.33;1.70;;;;;;;15.11;83.47;95264.34;4996196;28;20194;-76
2021/07/05 07:01:44;;;;;;;2.10;1.40;;;;;;;15.13;83.93;95267.59;4997510;28;20187;-76
2021/07/05 07:04:10;;;;;;;1.63;1.53;;;;;;;15.22;83.71;95258.66;4994323;28;20180;-76
2021/07/05 07:06:35;;;;;;;2.00;1.57;;;;;;;15.21;83.69;95255.22;4977533;28;20270;-75
2021/07/05 07:09:00;;;;;;;2.28;1.60;;;;;;;15.30;83.28;95261.16;4993282;28;20559;-75
2021/07/05 07:11:25;;;;;;;1.77;1.50;;;;;;;15.35;83.37;95258.78;5005106;28;20191;-75
2021/07/05 07:13:51;;;;;;;3.50;1.60;;;;;;;15.45;82.87;95259.31;5012714;28;20179;-75
2021/07/05 07:16:18;;;;;;;3.08;1.48;;;;;;;15.52;82.83;95257.56;5012479;28;20195;-75
2021/07/05 07:21:09;;;;;;;1.50;1.20;;;;;;;15.63;82.14;95256.31;5010741;28;20535;-75
2021/07/05 07:23:34;;;;;;;2.45;1.48;;;;;;;15.66;82.15;95255.13;5014667;28;20197;-75
2021/07/05 07:26:00;;;;;;;1.50;1.40;;;;;;;15.84;82.12;95253.72;4992892;28;20184;-74
2021/07/05 07:28:25;;;;;;;2.45;1.70;;;;;;;15.85;81.70;95254.53;5011977;28;20710;-76
2021/07/05 07:30:50;;;;;;;2.03;1.52;;;;;;;15.97;81.39;95247.78;4980982;28;20197;-76
2021/07/05 07:33:16;;;;;;;1.58;1.20;;;;;;;15.98;81.22;95243.34;5007119;28;20222;-75
2021/07/05 07:35:41;;;;;;;1.85;1.45;;;;;;;16.04;80.53;95253.06;5015841;28;20179;-74
2021/07/05 07:38:07;;;;;;;2.47;1.40;;;;;;;16.01;81.54;95262.13;5015041;28;20210;-76
2021/07/05 07:40:35;;;;;;;2.38;1.63;;;;;;;16.07;82.10;95263.16;5019156;28;20186;-77
2021/07/05 07:43:01;;;;;;;2.55;1.38;;;;;;;16.06;80.00;95256.31;4994308;28;20278;-77
2021/07/05 07:45:26;;;;;;;2.35;1.45;;;;;;;16.04;81.70;95255.69;4998429;28;20237;-76
2021/07/05 07:47:52;;;;;;;1.65;1.30;;;;;;;16.07;80.38;95258.72;4999477;28;20198;-77
2021/07/05 07:50:18;;;;;;;3.60;1.42;;;;;;;16.18;80.40;95252.19;5016377;28;20302;-77
2021/07/05 07:52:44;;;;;;;3.00;1.45;;;;;;;16.20;81.04;95259.88;4997094;28;20267;-77
2021/07/05 07:55:11;;;;;;;2.95;1.60;;;;;;;16.12;80.95;95261.63;5015269;28;20677;-75
2021/07/05 07:57:37;;;;;;;1.95;1.60;;;;;;;16.30;80.41;95258.53;5013547;28;20215;-76
2021/07/05 08:00:13;;;;;;;1.42;1.33;;;;;;;16.65;79.52;95242.84;5013220;28;20254;-75
2021/07/05 08:02:39;;;;;;;2.35;1.67;;;;;;;16.68;79.45;95245.91;5014469;28;20293;-76
2021/07/05 08:05:05;;;;;;;1.50;1.40;;;;;;;16.83;79.25;95247.63;5008710;28;20222;-76
2021/07/05 08:07:30;;;;;;;1.50;1.40;;;;;;;16.76;79.36;95242.34;5008343;28;20294;-76
2021/07/05 08:09:56;;;;;;;3.25;1.38;;;;;;;16.64;78.51;95242.03;4991562;28;20180;-76
2021/07/05 08:12:21;;;;;;;1.75;1.55;;;;;;;16.71;78.89;95239.50;4977519;28;20188;-76
2021/07/05 08:14:47;;;;;;;1.92;1.70;;;;;;;16.83;78.74;95242.38;4995779;28;20187;-75
2021/07/05 08:17:12;;;;;;;3.80;1.90;;;;;;;16.82;78.63;95241.56;5011320;28;20295;-76
2021/07/05 08:19:37;;;;;;;2.25;1.77;;;;;;;16.83;77.21;95240.56;4995069;28;20188;-76
2021/07/05 08:22:03;;;;;;;2.30;1.60;;;;;;;16.65;78.93;95245.47;4994810;28;20180;-75
2021/07/05 08:24:29;;;;;;;2.75;1.30;;;;;;;16.78;79.32;95240.31;4977020;28;20238;-74
2021/07/05 08:26:54;;;;;;;2.20;1.42;;;;;;;16.68;79.26;95242.47;4998056;28;20555;-76
2021/07/05 08:29:19;;;;;;;3.15;1.70;;;;;;;16.79;79.89;95234.09;5011951;28;20210;-76
2021/07/05 08:31:44;;;;;;;5.18;1.50;;;;;;;16.95;78.98;95230.31;4994837;28;20195;-74
2021/07/05 08:34:10;;;;;;;1.70;1.42;;;;;;;17.02;78.34;95231.19;4995314;28;20180;-76
2021/07/05 08:36:39;;;;;;;1.75;1.65;;;;;;;16.97;78.19;95228.34;4980934;28;20208;-76
2021/07/05 08:39:05;;;;;;;3.47;1.38;;;;;;;16.92;78.01;95225.47;5013521;28;20183;-76
2021/07/05 08:41:31;;;;;;;1.40;1.30;;;;;;;16.85;78.20;95230.69;5015307;28;20605;-76
2021/07/05 08:43:57;;;;;;;2.63;1.30;;;;;;;16.62;78.19;95228.31;5014641;28;20171;-75
2021/07/05 08:46:23;;;;;;;1.52;1.42;;;;;;;16.92;78.38;95231.53;5010020;28;20184;-75
2021/07/05 08:48:49;;;;;;;2.00;1.35;;;;;;;16.94;77.96;95232.16;5007844;28;20201;-76
2021/07/05 08:51:18;;;;;;;2.45;1.50;;;;;;;16.63;78.69;95226.50;4986515;28;20196;-75
2021/07/05 08:53:44;;;;;;;2.25;2.05;;;;;;;16.37;79.43;95235.00;4975246;28;20210;-75
2021/07/05 08:56:09;;;;;;;1.50;1.40;;;;;;;16.62;79.37;95241.44;4991252;28;20668;-76
2021/07/05 08:58:35;;;;;;;2.05;1.85;;;;;;;16.83;79.82;95235.31;4989832;28;20210;-75
2021/07/05 09:01:01;;;;;;;3.20;2.08;;;;;;;16.96;78.72;95230.16;5007413;28;20187;-75
2021/07/05 09:03:29;;;;;;;3.33;1.33;;;;;;;16.96;78.15;95224.06;4992289;28;20183;-76
2021/07/05 09:06:14;;;;;;;3.83;1.48;;;;;;;16.83;78.08;95227.47;4974668;28;20234;-77
2021/07/05 09:08:57;;;;;;;1.65;1.40;;;;;;;17.06;77.51;95226.38;5000567;28;20187;-76
2021/07/05 09:11:38;;;;;;;1.30;1.20;;;;;;;17.11;77.51;95234.44;5005295;28;20233;-75
2021/07/05 09:14:10;;;;;;;1.42;1.33;;;;;;;16.98;77.13;95237.84;5010328;28;20179;-76
2021/07/05 09:16:37;;;;;;;1.40;1.13;;;;;;;16.86;78.20;95239.38;5010563;28;20286;-75
2021/07/05 09:19:20;;;;;;;1.50;1.38;;;;;;;17.07;75.26;95239.28;5003914;28;20187;-75
2021/07/05 09:21:48;;;;;;;3.28;1.05;;;;;;;16.98;76.36;95237.84;5010386;28;20179;-76
2021/07/05 09:24:14;;;;;;;1.05;0.95;;;;;;;17.03;74.69;95235.41;5010499;28;20629;-75
2021/07/05 09:26:43;;;;;;;2.63;1.00;;;;;;;17.19;75.23;95240.34;5010303;28;20195;-76
2021/07/05 09:29:11;;;;;;;1.25;0.82;;;;;;;17.23;75.85;95232.91;5008497;28;20183;-76
2021/07/05 09:31:41;;;;;;;1.35;1.10;;;;;;;17.13;74.65;95233.22;5011651;28;20274;-76
2021/07/05 09:34:15;;;;;;;2.05;0.88;;;;;;;17.47;75.31;95221.84;5010337;28;20171;-75
2021/07/05 09:36:41;;;;;;;1.92;1.10;;;;;;;17.83;74.40;95218.91;5010416;28;20202;-75
2021/07/05 09:39:13;;;;;;;1.55;1.15;;;;;;;18.14;75.48;95220.16;5010445;28;20197;-73
2021/07/05 09:41:38;;;;;;;0.60;0.60;;;;;;;18.21;71.84;95212.28;5004145;28;20616;-74
2021/07/05 09:44:10;;;;;;;0.73;0.68;;;;;;;18.69;71.63;95218.13;4989208;28;20188;-75
2021/07/05 09:46:43;;;;;;;1.75;0.55;;;;;;;18.85;69.67;95211.59;4990950;28;20198;-75
2021/07/05 09:49:23;;;;;;;1.08;0.65;;;;;;;18.94;70.11;95210.38;4990486;28;20175;-75
2021/07/05 09:52:08;;;;;;;1.48;0.50;;;;;;;18.26;68.89;95207.22;5000338;28;20227;-75
2021/07/05 09:54:35;;;;;;;0.93;0.50;;;;;;;18.46;69.37;95215.09;5002202;28;20709;-76
2021/07/05 09:57:02;;;;;;;1.70;0.68;;;;;;;18.09;70.22;95212.06;5009697;28;20207;-75
2021/07/05 09:59:29;;;;;;;2.00;0.60;;;;;;;17.90;71.32;95210.25;5009102;28;20271;-75
2021/07/05 10:01:56;;;;;;;0.65;0.60;;;;;;;18.05;71.50;95216.13;4999853;28;20207;-75
2021/07/05 10:04:36;;;;;;;1.20;0.55;;;;;;;18.00;71.28;95214.09;5008269;28;21194;-74
2021/07/05 10:07:03;;;;;;;0.95;0.40;;;;;;;18.24;70.56;95206.63;5006335;28;20251;-74
2021/07/05 10:09:48;;;;;;;0.73;0.60;;;;;;;18.68;69.95;95209.41;4990369;28;20180;-74
2021/07/05 10:12:34;;;;;;;0.93;0.50;;;;;;;18.26;69.30;95217.72;4996175;28;20265;-74
2021/07/05 10:15:10;;;;;;;0.60;0.50;;;;;;;18.55;69.72;95208.59;5028588;28;20191;-74
2021/07/05 10:17:40;;;;;;;0.50;0.50;;;;;;;18.78;69.49;95206.34;5013595;28;20696;-74
2021/07/05 10:20:11;;;;;;;1.52;0.50;;;;;;;19.07;67.58;95194.53;5013265;28;20659;-74
2021/07/05 10:22:45;;;;;;;0.50;0.50;;;;;;;19.28;66.25;95192.63;5008118;28;20207;-73
2021/07/05 10:25:11;;;;;;;0.60;0.40;;;;;;;19.59;67.34;95191.88;5012788;28;20203;-74
2021/07/05 10:27:36;;;;;;;1.10;0.60;;;;;;;19.80;65.62;95196.81;5013498;28;20269;-74
2021/07/05 10:30:06;;;;;;;0.45;0.45;;;;;;;19.74;66.52;95195.03;5013219;28;20184;-74
2021/07/05 10:32:31;;;;;;;2.28;0.70;;;;;;;20.11;65.84;95190.69;5012592;28;20183;-74
2021/07/05 10:34:57;;;;;;;1.60;0.40;;;;;;;19.58;65.73;95195.53;4995373;28;20681;-76
2021/07/05 10:37:32;;;;;;;0.30;0.30;;;;;;;19.66;65.73;95182.91;5013065;28;20215;-74
2021/07/05 10:39:59;;;;;;;0.40;0.40;;;;;;;19.88;65.52;95190.44;5013198;28;20185;-75
2021/07/05 10:42:33;;;;;;;0.38;0.38;;;;;;;19.97;65.17;95186.56;4996756;28;20650;-74
2021/07/05 10:44:58;;;;;;;0.57;0.57;;;;;;;19.96;65.77;95188.38;5009105;28;20259;-74
2021/07/05 10:47:50;;;;;;;0.40;0.40;;;;;;;19.77;64.11;95186.69;5012952;28;20211;-74
2021/07/05 10:50:33;;;;;;;0.40;0.40;;;;;;;20.20;63.64;95188.59;5013973;28;20198;-75
2021/07/05 10:52:59;;;;;;;1.52;0.50;;;;;;;19.82;65.12;95186.88;5014274;28;20179;-74
2021/07/05 10:55:45;;;;;;;0.73;0.32;;;;;;;19.57;66.19;95180.75;5011251;28;20187;-74
2021/07/05 10:58:30;;;;;;;0.60;0.50;;;;;;;19.67;65.70;95188.97;5012482;28;20698;-74
2021/07/05 11:01:04;;;;;;;0.50;0.40;;;;;;;19.38;65.67;95185.88;5013728;28;20206;-74
2021/07/05 11:03:36;;;;;;;0.63;0.47;;;;;;;19.50;65.94;95184.19;4995750;28;20213;-75
2021/07/05 11:06:14;;;;;;;1.65;0.50;;;;;;;19.20;66.93;95183.94;5012804;28;20186;-75
2021/07/05 11:08:51;;;;;;;0.90;0.50;;;;;;;19.11;67.30;95190.47;5014471;28;20203;-73
2021/07/05 11:11:25;;;;;;;0.93;0.88;;;;;;;18.81;67.10;95190.16;5013924;28;20682;-73
2021/07/05 11:14:16;;;;;;;0.50;0.50;;;;;;;18.34;69.33;95189.41;5012381;28;20187;-74
2021/07/05 11:16:59;;;;;;;1.25;0.47;;;;;;;18.58;68.20;95184.53;5008280;28;20204;-74
2021/07/05 11:19:32;;;;;;;0.50;0.50;;;;;;;18.30;68.14;95193.47;5007285;28;20171;-73
2021/07/05 11:22:01;;;;;;;0.47;0.45;;;;;;;18.66;67.53;95193.03;4998796;28;20233;-73
2021/07/05 11:24:37;;;;;;;0.63;0.57;;;;;;;18.74;67.00;95180.69;5011618;28;20255;-74
2021/07/05 11:27:29;;;;;;;0.50;0.50;;;;;;;18.53;67.33;95186.97;5005442;28;20238;-75
2021/07/05 11:29:55;;;;;;;1.08;0.60;;;;;;;18.42;67.82;95177.88;5011830;28;20249;-74
2021/07/05 11:32:34;;;;;;;0.47;0.47;;;;;;;18.50;67.17;95187.38;5011974;28;20187;-73
2021/07/05 11:35:00;;;;;;;0.50;0.50;;;;;;;18.62;67.69;95189.16;5013389;28;20171;-74
2021/07/05 11:37:25;;;;;;;0.50;0.50;;;;;;;18.83;67.62;95184.72;5010325;28;20241;-74
2021/07/05 11:39:53;;;;;;;0.45;0.45;;;;;;;18.89;66.32;95182.03;5013196;28;20183;-73